createdAt,value
2018-05-23T00:00:15.573Z,27.00
2018-05-23T00:01:15.566Z,27.60
2018-05-23T00:02:15.565Z,29.10
2018-05-23T00:03:15.569Z,28.10
2018-05-23T00:04:15.569Z,28.50
2018-05-23T00:05:15.567Z,29.50
2018-05-23T00:06:15.566Z,28.80
2018-05-23T00:07:15.560Z,27.50
2018-05-23T00:08:15.559Z,27.40
2018-05-23T00:09:15.559Z,29.50
2018-05-23T00:10:15.558Z,28.60
2018-05-23T00:11:15.561Z,28.80
2018-05-23T00:12:15.561Z,27.30
2018-05-23T00:13:15.561Z,30.70
2018-05-23T00:14:15.561Z,37.70
2018-05-23T00:15:15.555Z,37.20
2018-05-23T00:16:15.554Z,37.20
2018-05-23T00:17:15.558Z,36.90
2018-05-23T00:18:15.557Z,34.80
2018-05-23T00:19:15.551Z,40.40
2018-05-23T00:20:15.552Z,37.30
2018-05-23T00:21:15.551Z,38.70
2018-05-23T00:22:15.554Z,34.20
2018-05-23T00:23:15.552Z,34.90
2018-05-23T00:24:15.551Z,36.00
2018-05-23T00:25:15.551Z,38.10
2018-05-23T00:26:15.551Z,39.10
2018-05-23T00:27:15.544Z,36.80
2018-05-23T00:28:15.544Z,39.30
2018-05-23T00:29:15.544Z,38.00
2018-05-23T00:30:15.543Z,36.20
2018-05-23T00:31:15.554Z,38.80
2018-05-23T00:32:15.544Z,39.30
2018-05-23T00:33:15.539Z,40.80
2018-05-23T00:34:15.539Z,39.00
2018-05-23T00:35:15.542Z,39.40
2018-05-23T00:36:15.542Z,41.50
2018-05-23T00:37:15.540Z,38.10
2018-05-23T00:38:15.539Z,38.60
2018-05-23T00:39:15.535Z,39.60
2018-05-23T00:40:15.532Z,40.10
2018-05-23T00:41:15.531Z,38.20
2018-05-23T00:42:15.530Z,38.30
2018-05-23T00:43:15.533Z,38.70
2018-05-23T00:44:15.532Z,39.20
2018-05-23T00:45:15.532Z,40.30
2018-05-23T00:46:15.533Z,35.90
2018-05-23T00:47:15.524Z,39.00
2018-05-23T00:48:15.524Z,38.70
2018-05-23T00:49:15.535Z,37.40
2018-05-23T00:50:15.595Z,36.80
2018-05-23T00:51:15.520Z,36.00
2018-05-23T00:52:15.519Z,37.40
2018-05-23T00:53:15.518Z,37.90
2018-05-23T00:54:15.518Z,35.70
2018-05-23T00:55:15.520Z,39.60
2018-05-23T00:56:15.519Z,39.50
2018-05-23T00:57:15.519Z,39.20
2018-05-23T00:58:15.520Z,38.20
2018-05-23T00:59:15.512Z,36.40
2018-05-23T01:00:15.512Z,37.20
2018-05-23T01:01:15.509Z,39.60
2018-05-23T01:02:15.509Z,41.70
2018-05-23T01:03:15.511Z,39.80
2018-05-23T01:04:15.510Z,40.50
2018-05-23T01:05:15.507Z,40.90
2018-05-23T01:06:15.504Z,41.50
2018-05-23T01:07:15.506Z,38.70
2018-05-23T01:08:15.505Z,37.50
2018-05-23T01:09:15.506Z,38.30
2018-05-23T01:10:15.505Z,39.30
2018-05-23T01:11:15.498Z,38.40
2018-05-23T01:12:15.497Z,39.00
2018-05-23T01:13:15.498Z,36.60
2018-05-23T01:14:15.495Z,37.20
2018-05-23T01:15:15.498Z,38.70
2018-05-23T01:16:15.496Z,40.30
2018-05-23T01:17:15.495Z,38.90
2018-05-23T01:18:15.494Z,38.90
2018-05-23T01:19:15.487Z,40.20
2018-05-23T01:20:15.487Z,38.70
2018-05-23T01:21:15.490Z,38.70
2018-05-23T01:22:15.493Z,39.20
2018-05-23T01:23:15.483Z,39.90
2018-05-23T01:24:15.482Z,40.50
2018-05-23T01:25:15.481Z,40.60
2018-05-23T01:26:15.479Z,37.10
2018-05-23T01:27:15.483Z,37.80
2018-05-23T01:28:15.482Z,37.00
2018-05-23T01:29:15.481Z,37.30
2018-05-23T01:30:15.480Z,37.50
2018-05-23T01:31:15.473Z,37.30
2018-05-23T01:32:15.471Z,38.20
2018-05-23T01:33:15.471Z,36.00
2018-05-23T01:34:15.469Z,39.50
2018-05-23T01:35:15.472Z,39.80
2018-05-23T01:36:15.471Z,40.50
2018-05-23T01:37:15.466Z,39.20
2018-05-23T01:38:15.464Z,37.30
2018-05-23T01:39:15.466Z,38.90
2018-05-23T01:40:15.465Z,38.70
2018-05-23T01:41:15.465Z,42.40
2018-05-23T01:42:15.464Z,37.70
2018-05-23T01:43:15.456Z,40.40
2018-05-23T01:44:15.457Z,37.00
2018-05-23T01:45:15.458Z,36.60
2018-05-23T01:46:15.453Z,35.60
2018-05-23T01:47:15.456Z,34.80
2018-05-23T01:48:15.454Z,35.30
2018-05-23T01:49:15.453Z,35.40
2018-05-23T01:50:15.455Z,36.70
2018-05-23T01:51:15.446Z,35.90
2018-05-23T01:52:15.447Z,37.40
2018-05-23T01:53:15.447Z,36.50
2018-05-23T01:54:15.447Z,35.50
2018-05-23T01:55:15.440Z,36.50
2018-05-23T01:56:15.438Z,36.10
2018-05-23T01:57:15.441Z,36.00
2018-05-23T01:58:15.435Z,36.50
2018-05-23T01:59:15.437Z,37.90
2018-05-23T02:00:15.443Z,35.60
2018-05-23T02:01:15.431Z,38.50
2018-05-23T02:02:15.432Z,35.40
2018-05-23T02:03:15.431Z,35.30
2018-05-23T02:04:15.434Z,36.60
2018-05-23T02:05:15.429Z,36.40
2018-05-23T02:06:15.427Z,35.40
2018-05-23T02:07:15.421Z,36.20
2018-05-23T02:08:15.420Z,34.70
2018-05-23T02:09:15.422Z,34.50
2018-05-23T02:10:15.421Z,35.30
2018-05-23T02:11:15.416Z,35.90
2018-05-23T02:12:15.413Z,37.40
2018-05-23T02:13:15.412Z,34.60
2018-05-23T02:14:15.410Z,33.60
2018-05-23T02:15:15.414Z,34.90
2018-05-23T02:16:15.412Z,33.40
2018-05-23T02:17:15.410Z,36.50
2018-05-23T02:18:15.409Z,38.30
2018-05-23T02:19:15.405Z,40.50
2018-05-23T02:20:15.401Z,43.30
2018-05-23T02:21:15.399Z,42.20
2018-05-23T02:22:15.397Z,43.60
2018-05-23T02:23:15.399Z,43.90
2018-05-23T02:24:15.402Z,42.00
2018-05-23T02:25:15.392Z,44.70
2018-05-23T02:26:15.391Z,40.00
2018-05-23T02:27:15.394Z,39.00
2018-05-23T02:28:15.394Z,36.40
2018-05-23T02:29:15.391Z,35.70
2018-05-23T02:30:15.390Z,37.30
2018-05-23T02:31:15.382Z,36.00
2018-05-23T02:32:15.381Z,36.80
2018-05-23T02:33:15.379Z,37.20
2018-05-23T02:34:15.379Z,39.60
2018-05-23T02:35:15.380Z,40.20
2018-05-23T02:36:15.380Z,37.70
2018-05-23T02:37:15.378Z,36.90
2018-05-23T02:38:15.376Z,33.00
2018-05-23T02:39:15.375Z,33.20
2018-05-23T02:40:15.369Z,30.90
2018-05-23T02:41:15.370Z,31.30
2018-05-23T02:42:15.369Z,32.70
2018-05-23T02:43:15.361Z,38.10
2018-05-23T02:44:15.361Z,42.90
2018-05-23T02:45:15.361Z,37.40
2018-05-23T02:46:15.359Z,35.90
2018-05-23T02:47:15.473Z,34.60
2018-05-23T02:48:15.360Z,35.70
2018-05-23T02:49:15.359Z,36.20
2018-05-23T02:50:15.357Z,40.00
2018-05-23T02:51:15.360Z,37.60
2018-05-23T02:52:15.348Z,36.40
2018-05-23T02:53:15.347Z,35.80
2018-05-23T02:54:15.345Z,40.70
2018-05-23T02:55:15.347Z,42.10
2018-05-23T02:56:15.347Z,41.50
2018-05-23T02:57:15.341Z,40.80
2018-05-23T02:58:15.339Z,41.80
2018-05-23T02:59:15.344Z,39.50
2018-05-23T03:00:15.341Z,38.00
2018-05-23T03:01:15.339Z,38.70
2018-05-23T03:02:15.338Z,40.50
2018-05-23T03:03:15.330Z,35.60
2018-05-23T03:04:15.331Z,34.80
2018-05-23T03:05:15.333Z,34.60
2018-05-23T03:06:15.325Z,34.30
2018-05-23T03:07:15.328Z,31.10
2018-05-23T03:08:15.327Z,34.10
2018-05-23T03:09:15.326Z,35.00
2018-05-23T03:10:15.330Z,35.10
2018-05-23T03:11:15.319Z,37.50
2018-05-23T03:12:15.315Z,38.30
2018-05-23T03:13:15.318Z,37.40
2018-05-23T03:14:15.317Z,38.00
2018-05-23T03:15:15.312Z,36.40
2018-05-23T03:16:15.310Z,37.50
2018-05-23T03:17:15.307Z,39.10
2018-05-23T03:18:15.305Z,40.50
2018-05-23T03:19:15.307Z,39.20
2018-05-23T03:20:15.310Z,40.30
2018-05-23T03:21:15.304Z,38.10
2018-05-23T03:22:15.305Z,40.50
2018-05-23T03:23:15.297Z,40.00
2018-05-23T03:24:15.296Z,41.20
2018-05-23T03:25:15.294Z,42.60
2018-05-23T03:26:15.295Z,41.90
2018-05-23T03:27:15.295Z,40.40
2018-05-23T03:28:15.296Z,41.10
2018-05-23T03:29:15.288Z,37.30
2018-05-23T03:30:15.287Z,35.40
2018-05-23T03:31:15.290Z,37.00
2018-05-23T03:32:15.287Z,36.20
2018-05-23T03:33:15.285Z,37.00
2018-05-23T03:34:15.284Z,35.90
2018-05-23T03:35:15.281Z,39.00
2018-05-23T03:36:15.276Z,38.80
2018-05-23T03:37:15.274Z,39.90
2018-05-23T03:38:15.272Z,40.00
2018-05-23T03:39:15.274Z,40.40
2018-05-23T03:40:15.273Z,41.90
2018-05-23T03:41:15.272Z,41.70
2018-05-23T03:42:15.272Z,43.50
2018-05-23T03:43:15.266Z,42.40
2018-05-23T03:44:15.262Z,39.90
2018-05-23T03:45:15.269Z,41.90
2018-05-23T03:46:15.265Z,40.40
2018-05-23T03:47:15.257Z,41.20
2018-05-23T03:48:15.257Z,37.80
2018-05-23T03:49:15.254Z,38.90
2018-05-23T03:50:15.253Z,37.50
2018-05-23T03:51:15.254Z,39.00
2018-05-23T03:52:15.257Z,38.60
2018-05-23T03:53:15.252Z,38.40
2018-05-23T03:54:15.250Z,34.00
2018-05-23T03:55:15.281Z,39.20
2018-05-23T03:56:15.243Z,40.10
2018-05-23T03:57:15.240Z,38.70
2018-05-23T03:58:15.239Z,37.70
2018-05-23T03:59:15.242Z,36.80
2018-05-23T04:00:15.239Z,37.10
2018-05-23T04:01:15.241Z,36.40
2018-05-23T04:02:15.236Z,38.60
2018-05-23T04:03:15.235Z,37.90
2018-05-23T04:04:15.233Z,39.60
2018-05-23T04:05:15.231Z,38.70
2018-05-23T04:06:15.229Z,38.40
2018-05-23T04:07:15.221Z,39.10
2018-05-23T04:08:15.221Z,42.70
2018-05-23T04:09:15.219Z,40.40
2018-05-23T04:10:15.218Z,42.10
2018-05-23T04:11:15.220Z,41.40
2018-05-23T04:12:15.219Z,42.10
2018-05-23T04:13:15.218Z,42.60
2018-05-23T04:14:15.215Z,40.20
2018-05-23T04:15:15.208Z,38.90
2018-05-23T04:16:15.207Z,41.50
2018-05-23T04:17:15.211Z,38.50
2018-05-23T04:18:15.218Z,40.60
2018-05-23T04:19:15.202Z,39.40
2018-05-23T04:20:15.201Z,36.90
2018-05-23T04:21:15.201Z,38.90
2018-05-23T04:22:15.198Z,37.30
2018-05-23T04:23:15.204Z,40.60
2018-05-23T04:24:15.200Z,38.10
2018-05-23T04:25:15.198Z,39.50
2018-05-23T04:26:15.197Z,38.90
2018-05-23T04:27:15.189Z,39.70
2018-05-23T04:28:15.189Z,36.10
2018-05-23T04:29:15.187Z,36.90
2018-05-23T04:30:15.186Z,37.30
2018-05-23T04:31:15.188Z,36.40
2018-05-23T04:32:15.187Z,38.50
2018-05-23T04:33:15.182Z,40.10
2018-05-23T04:34:15.180Z,39.70
2018-05-23T04:35:15.182Z,39.70
2018-05-23T04:36:15.180Z,40.10
2018-05-23T04:37:15.181Z,38.60
2018-05-23T04:38:15.179Z,36.90
2018-05-23T04:39:15.242Z,38.90
2018-05-23T04:40:15.172Z,36.40
2018-05-23T04:41:15.171Z,38.80
2018-05-23T04:42:15.169Z,40.10
2018-05-23T04:43:15.172Z,38.40
2018-05-23T04:44:15.170Z,40.20
2018-05-23T04:45:15.168Z,41.70
2018-05-23T04:46:15.168Z,41.30
2018-05-23T04:47:15.161Z,40.00
2018-05-23T04:48:15.160Z,40.20
2018-05-23T04:49:15.166Z,41.10
2018-05-23T04:50:15.162Z,41.50
2018-05-23T04:51:15.156Z,38.70
2018-05-23T04:52:15.154Z,38.30
2018-05-23T04:53:15.154Z,42.30
2018-05-23T04:54:15.156Z,40.20
2018-05-23T04:55:15.155Z,39.40
2018-05-23T04:56:15.155Z,37.70
2018-05-23T04:57:15.154Z,38.90
2018-05-23T04:58:15.153Z,41.30
2018-05-23T04:59:15.146Z,40.20
2018-05-23T05:00:15.149Z,43.20
2018-05-23T05:01:15.143Z,41.00
2018-05-23T05:02:15.143Z,39.10
2018-05-23T05:03:15.145Z,37.50
2018-05-23T05:04:15.144Z,38.30
2018-05-23T05:05:15.139Z,39.60
2018-05-23T05:06:15.138Z,39.50
2018-05-23T05:07:15.144Z,40.60
2018-05-23T05:08:15.139Z,41.80
2018-05-23T05:09:15.138Z,40.00
2018-05-23T05:10:15.138Z,39.40
2018-05-23T05:11:15.131Z,42.40
2018-05-23T05:12:15.131Z,44.00
2018-05-23T05:13:15.129Z,41.40
2018-05-23T05:14:15.129Z,42.00
2018-05-23T05:15:15.130Z,41.30
2018-05-23T05:16:15.130Z,41.40
2018-05-23T05:17:15.131Z,41.50
2018-05-23T05:18:15.128Z,41.00
2018-05-23T05:19:15.122Z,40.80
2018-05-23T05:20:15.121Z,41.60
2018-05-23T05:21:15.126Z,42.70
2018-05-23T05:22:15.124Z,40.20
2018-05-23T05:23:15.117Z,42.10
2018-05-23T05:24:15.117Z,42.10
2018-05-23T05:25:15.116Z,39.70
2018-05-23T05:26:15.113Z,39.20
2018-05-23T05:27:15.117Z,39.80
2018-05-23T05:28:15.116Z,38.80
2018-05-23T05:29:15.115Z,40.80
2018-05-23T05:30:15.117Z,41.60
2018-05-23T05:31:15.111Z,42.30
2018-05-23T05:32:15.106Z,41.00
2018-05-23T05:33:15.106Z,42.90
2018-05-23T05:34:15.109Z,41.30
2018-05-23T05:35:15.108Z,37.10
2018-05-23T05:36:15.110Z,39.90
2018-05-23T05:37:15.102Z,37.40
2018-05-23T05:38:15.103Z,38.60
2018-05-23T05:39:15.105Z,36.50
2018-05-23T05:40:15.104Z,38.20
2018-05-23T05:41:15.102Z,40.40
2018-05-23T05:42:15.101Z,39.30
2018-05-23T05:43:15.095Z,39.80
2018-05-23T05:44:15.095Z,38.30
2018-05-23T05:45:15.094Z,37.80
2018-05-23T05:46:15.093Z,36.10
2018-05-23T05:47:15.096Z,34.50
2018-05-23T05:48:15.095Z,36.00
2018-05-23T05:49:15.096Z,36.70
2018-05-23T05:50:15.097Z,36.30
2018-05-23T05:51:15.088Z,35.10
2018-05-23T05:52:15.088Z,34.50
2018-05-23T05:53:15.093Z,33.00
2018-05-23T05:54:15.091Z,34.60
2018-05-23T05:55:15.085Z,33.70
2018-05-23T05:56:15.083Z,31.50
2018-05-23T05:57:15.082Z,34.90
2018-05-23T05:58:15.083Z,33.80
2018-05-23T05:59:15.085Z,30.80
2018-05-23T06:00:15.088Z,33.80
2018-05-23T06:01:15.084Z,32.50
2018-05-23T06:02:15.083Z,31.20
2018-05-23T06:03:15.077Z,32.00
2018-05-23T06:04:15.077Z,30.70
2018-05-23T06:05:15.077Z,32.30
2018-05-23T06:06:15.076Z,28.10
2018-05-23T06:07:15.079Z,28.10
2018-05-23T06:08:15.080Z,29.60
2018-05-23T06:09:15.074Z,28.60
2018-05-23T06:10:15.073Z,29.90
2018-05-23T06:11:15.078Z,28.60
2018-05-23T06:12:15.077Z,29.20
2018-05-23T06:13:15.075Z,30.30
2018-05-23T06:14:15.075Z,29.60
2018-05-23T06:15:15.070Z,28.70
2018-05-23T06:16:15.068Z,28.00
2018-05-23T06:17:15.075Z,28.30
2018-05-23T06:18:15.068Z,27.40
2018-05-23T06:19:15.071Z,29.10
2018-05-23T06:20:15.071Z,28.70
2018-05-23T06:21:15.072Z,27.90
2018-05-23T06:22:15.160Z,27.50
2018-05-23T06:23:15.065Z,28.10
2018-05-23T06:24:15.066Z,25.40
2018-05-23T06:25:15.069Z,27.50
2018-05-23T06:26:15.070Z,25.60
2018-05-23T06:27:15.068Z,26.90
2018-05-23T06:28:15.063Z,27.80
2018-05-23T06:29:15.063Z,26.10
2018-05-23T06:30:15.074Z,26.60
2018-05-23T06:31:15.066Z,26.60
2018-05-23T06:32:15.066Z,27.50
2018-05-23T06:33:15.066Z,27.30
2018-05-23T06:34:15.065Z,27.40
2018-05-23T06:35:15.062Z,26.20
2018-05-23T06:36:15.062Z,26.60
2018-05-23T06:37:15.061Z,26.80
2018-05-23T06:38:15.062Z,25.00
2018-05-23T06:39:15.065Z,24.80
2018-05-23T06:40:15.065Z,27.40
2018-05-23T06:41:15.060Z,26.30
2018-05-23T06:42:15.063Z,25.40
2018-05-23T06:43:15.065Z,26.00
2018-05-23T06:44:15.065Z,25.60
2018-05-23T06:45:15.064Z,25.10
2018-05-23T06:46:15.064Z,25.40
2018-05-23T06:47:15.059Z,26.80
2018-05-23T06:48:15.060Z,26.70
2018-05-23T06:49:15.061Z,25.70
2018-05-23T06:50:15.059Z,24.90
2018-05-23T06:51:15.064Z,25.20
2018-05-23T06:52:15.064Z,22.80
2018-05-23T06:53:15.144Z,22.00
2018-05-23T06:54:15.066Z,21.10
2018-05-23T06:55:15.060Z,23.10
2018-05-23T06:56:15.061Z,23.30
2018-05-23T06:57:15.067Z,22.60
2018-05-23T06:58:15.067Z,22.80
2018-05-23T06:59:15.060Z,24.60
2018-05-23T07:00:15.066Z,23.60
2018-05-23T07:01:15.062Z,24.00
2018-05-23T07:02:15.061Z,22.90
2018-05-23T07:03:15.068Z,22.60
2018-05-23T07:04:15.065Z,23.70
2018-05-23T07:05:15.069Z,23.50
2018-05-23T07:06:15.067Z,23.20
2018-05-23T07:07:15.064Z,21.50
2018-05-23T07:08:15.063Z,23.90
2018-05-23T07:09:15.063Z,22.80
2018-05-23T07:10:15.063Z,22.80
2018-05-23T07:11:15.171Z,22.60
2018-05-23T07:12:15.069Z,22.90
2018-05-23T07:13:15.065Z,24.00
2018-05-23T07:14:15.066Z,25.30
2018-05-23T07:15:15.071Z,25.20
2018-05-23T07:16:15.072Z,25.60
2018-05-23T07:17:15.075Z,25.10
2018-05-23T07:18:15.073Z,25.60
2018-05-23T07:19:15.069Z,23.40
2018-05-23T07:20:15.073Z,24.70
2018-05-23T07:21:15.072Z,24.30
2018-05-23T07:22:15.073Z,25.20
2018-05-23T07:23:15.079Z,24.40
2018-05-23T07:24:15.081Z,25.20
2018-05-23T07:25:15.087Z,24.20
2018-05-23T07:26:15.087Z,24.30
2018-05-23T07:27:15.080Z,25.30
2018-05-23T07:28:15.081Z,24.70
2018-05-23T07:29:15.089Z,24.60
2018-05-23T07:30:15.091Z,24.90
2018-05-23T07:31:15.087Z,24.60
2018-05-23T07:32:15.090Z,23.80
2018-05-23T07:33:15.092Z,23.00
2018-05-23T07:34:15.095Z,23.90
2018-05-23T07:35:15.102Z,23.90
2018-05-23T07:36:15.103Z,23.90
2018-05-23T07:37:15.107Z,22.80
2018-05-23T07:38:15.129Z,24.10
2018-05-23T07:39:15.108Z,24.10
2018-05-23T07:40:15.109Z,24.50
2018-05-23T07:41:15.111Z,24.00
2018-05-23T07:42:15.118Z,24.50
2018-05-23T07:43:15.121Z,23.70
2018-05-23T07:44:15.125Z,23.50
2018-05-23T07:45:15.123Z,24.90
2018-05-23T07:46:15.127Z,23.10
2018-05-23T07:47:15.134Z,24.10
2018-05-23T07:48:15.138Z,24.60
2018-05-23T07:49:15.140Z,23.70
2018-05-23T07:50:15.148Z,23.70
2018-05-23T07:51:15.143Z,23.80
2018-05-23T07:52:15.145Z,23.10
2018-05-23T07:53:15.149Z,23.70
2018-05-23T07:54:15.150Z,23.40
2018-05-23T07:55:15.159Z,23.80
2018-05-23T07:56:15.161Z,23.00
2018-05-23T07:57:15.164Z,22.60
2018-05-23T07:58:15.168Z,23.20
2018-05-23T07:59:15.166Z,22.40
2018-05-23T08:00:15.170Z,22.40
2018-05-23T08:01:15.183Z,21.90
2018-05-23T08:02:15.185Z,21.40
2018-05-23T08:03:15.180Z,21.00
2018-05-23T08:04:15.186Z,20.90
2018-05-23T08:05:15.188Z,20.60
2018-05-23T08:06:15.193Z,20.10
2018-05-23T08:07:15.205Z,20.20
2018-05-23T08:08:15.205Z,20.40
2018-05-23T08:09:15.260Z,19.00
2018-05-23T08:10:15.216Z,19.00
2018-05-23T08:11:15.214Z,18.60
2018-05-23T08:12:15.222Z,19.50
2018-05-23T08:13:15.224Z,18.10
2018-05-23T08:14:15.231Z,19.30
2018-05-23T08:15:15.238Z,19.70
2018-05-23T08:16:15.244Z,18.70
2018-05-23T08:17:15.245Z,21.00
2018-05-23T08:18:15.251Z,19.90
2018-05-23T08:19:15.260Z,20.30
2018-05-23T08:20:15.265Z,19.60
2018-05-23T08:21:15.273Z,19.10
2018-05-23T08:22:15.278Z,18.50
2018-05-23T08:23:15.277Z,17.70
2018-05-23T08:24:15.371Z,18.30
2018-05-23T08:25:15.289Z,18.00
2018-05-23T08:26:15.296Z,17.40
2018-05-23T08:27:15.305Z,15.90
2018-05-23T08:28:15.310Z,16.50
2018-05-23T08:29:15.321Z,16.30
2018-05-23T08:30:15.324Z,17.30
2018-05-23T08:31:15.324Z,16.60
2018-05-23T08:32:15.331Z,17.90
2018-05-23T08:33:15.343Z,15.80
2018-05-23T08:34:15.348Z,16.10
2018-05-23T08:35:15.350Z,15.90
2018-05-23T08:36:15.356Z,15.00
2018-05-23T08:37:15.362Z,15.70
2018-05-23T08:38:15.370Z,13.70
2018-05-23T08:39:15.380Z,15.30
2018-05-23T08:40:15.386Z,13.00
2018-05-23T08:41:15.394Z,13.00
2018-05-23T08:42:15.404Z,13.10
2018-05-23T08:43:15.409Z,11.70
2018-05-23T08:44:15.412Z,11.70
2018-05-23T08:45:15.421Z,11.90
2018-05-23T08:46:15.436Z,10.90
2018-05-23T08:47:15.442Z,12.50
2018-05-23T08:48:15.453Z,10.70
2018-05-23T08:49:15.455Z,10.90
2018-05-23T08:50:15.464Z,11.40
2018-05-23T08:51:15.479Z,12.40
2018-05-23T08:52:15.487Z,12.10
2018-05-23T08:53:15.497Z,12.50
2018-05-23T08:54:15.506Z,11.30
2018-05-23T08:55:15.511Z,11.00
2018-05-23T08:56:15.521Z,11.30
2018-05-23T08:57:15.532Z,12.90
2018-05-23T08:58:15.542Z,12.40
2018-05-23T08:59:15.555Z,12.20
2018-05-23T09:00:15.565Z,11.40
2018-05-23T09:01:15.577Z,11.30
2018-05-23T09:02:15.590Z,10.90
2018-05-23T09:03:15.593Z,10.20
2018-05-23T09:04:15.604Z,9.80
2018-05-23T09:05:15.620Z,9.20
2018-05-23T09:06:15.632Z,7.40
2018-05-23T09:07:15.639Z,8.60
2018-05-23T09:08:15.652Z,8.70
2018-05-23T09:09:15.664Z,8.40
2018-05-23T09:10:15.676Z,8.40
2018-05-23T09:11:15.697Z,8.50
2018-05-23T09:12:15.768Z,7.90
2018-05-23T09:13:15.719Z,7.50
2018-05-23T09:14:15.733Z,7.40
2018-05-23T09:15:15.743Z,7.40
2018-05-23T09:16:15.757Z,6.40
2018-05-23T09:17:15.858Z,6.90
2018-05-23T09:18:15.784Z,6.50
2018-05-23T09:19:15.803Z,7.20
2018-05-23T09:20:15.816Z,7.70
2018-05-23T09:21:15.826Z,7.00
2018-05-23T09:22:15.842Z,7.00
2018-05-23T09:23:15.858Z,7.20
2018-05-23T09:24:15.874Z,7.00
2018-05-23T09:25:15.888Z,6.70
2018-05-23T09:26:15.903Z,6.80
2018-05-23T09:27:15.912Z,5.90
2018-05-23T09:28:15.927Z,6.30
2018-05-23T09:29:15.943Z,6.20
2018-05-23T09:30:15.957Z,6.00
2018-05-23T09:31:15.976Z,7.50
2018-05-23T09:32:16.005Z,7.50
2018-05-23T09:33:16.006Z,7.80
2018-05-23T09:34:16.021Z,7.80
2018-05-23T09:35:16.033Z,7.20
2018-05-23T09:36:16.046Z,8.40
2018-05-23T09:37:16.063Z,8.20
2018-05-23T09:38:16.078Z,9.50
2018-05-23T09:39:16.128Z,9.00
2018-05-23T09:40:16.160Z,8.10
2018-05-23T09:41:16.115Z,8.00
2018-05-23T09:42:16.131Z,8.10
2018-05-23T09:43:16.149Z,7.80
2018-05-23T09:44:16.167Z,7.50
2018-05-23T09:45:16.243Z,7.40
2018-05-23T09:46:16.194Z,6.70
2018-05-23T09:47:16.202Z,6.50
2018-05-23T09:48:16.216Z,6.30
2018-05-23T09:49:16.232Z,5.40
2018-05-23T09:50:16.248Z,5.50
2018-05-23T09:51:16.266Z,6.00
2018-05-23T09:52:16.283Z,6.30
2018-05-23T09:53:16.294Z,6.30
2018-05-23T09:54:16.309Z,7.20
2018-05-23T09:55:16.326Z,7.80
2018-05-23T09:56:16.341Z,8.70
2018-05-23T09:57:16.357Z,9.20
2018-05-23T09:58:16.371Z,10.00
2018-05-23T09:59:16.379Z,10.10
2018-05-23T10:00:16.393Z,10.00
2018-05-23T10:01:16.407Z,10.20
2018-05-23T10:02:16.422Z,9.40
2018-05-23T10:03:16.439Z,9.30
2018-05-23T10:04:16.452Z,9.30
2018-05-23T10:05:16.465Z,8.40
2018-05-23T10:06:16.478Z,8.10
2018-05-23T10:07:16.486Z,8.40
2018-05-23T10:08:16.500Z,8.00
2018-05-23T10:09:16.520Z,8.20
2018-05-23T10:10:16.532Z,7.30
2018-05-23T10:11:16.540Z,7.50
2018-05-23T10:12:16.556Z,7.30
2018-05-23T10:13:16.573Z,8.00
2018-05-23T10:14:16.583Z,8.00
2018-05-23T10:15:16.601Z,7.80
2018-05-23T10:16:16.621Z,7.60
2018-05-23T10:17:16.630Z,7.30
2018-05-23T10:18:16.645Z,6.20
2018-05-23T10:19:16.659Z,6.80
2018-05-23T10:20:16.668Z,7.30
2018-05-23T10:21:16.682Z,8.30
2018-05-23T10:22:16.697Z,7.70
2018-05-23T10:23:16.713Z,7.50
2018-05-23T10:24:16.730Z,7.60
2018-05-23T10:25:16.737Z,7.50
2018-05-23T10:26:16.835Z,7.60
2018-05-23T10:27:16.769Z,8.30
2018-05-23T10:28:16.783Z,8.60
2018-05-23T10:29:16.797Z,8.00
2018-05-23T10:30:16.811Z,7.90
2018-05-23T10:31:16.818Z,7.90
2018-05-23T10:32:16.832Z,7.90
2018-05-23T10:33:16.912Z,8.40
2018-05-23T10:34:16.861Z,8.10
2018-05-23T10:35:16.870Z,8.60
2018-05-23T10:36:16.881Z,8.30
2018-05-23T10:37:16.894Z,8.20
2018-05-23T10:38:16.904Z,8.70
2018-05-23T10:39:16.920Z,9.00
2018-05-23T10:40:16.931Z,8.60
2018-05-23T10:41:16.949Z,8.60
2018-05-23T10:42:16.946Z,8.80
2018-05-23T10:43:16.961Z,9.80
2018-05-23T10:44:16.972Z,10.10
2018-05-23T10:45:16.980Z,10.30
2018-05-23T10:46:16.993Z,10.30
2018-05-23T10:47:16.993Z,9.80
2018-05-23T10:48:17.005Z,11.10
2018-05-23T10:49:17.012Z,9.90
2018-05-23T10:50:17.023Z,10.70
2018-05-23T10:51:17.034Z,11.30
2018-05-23T10:52:17.041Z,10.30
2018-05-23T10:53:17.050Z,11.20
2018-05-23T10:54:17.058Z,11.10
2018-05-23T10:55:17.096Z,11.20
2018-05-23T10:56:17.079Z,11.60
2018-05-23T10:57:17.150Z,11.60
2018-05-23T10:58:17.089Z,11.50
2018-05-23T10:59:17.089Z,11.70
2018-05-23T11:00:17.095Z,10.40
2018-05-23T11:01:17.104Z,10.70
2018-05-23T11:02:17.111Z,9.70
2018-05-23T11:03:17.120Z,10.90
2018-05-23T11:04:17.126Z,10.70
2018-05-23T11:05:17.133Z,10.70
2018-05-23T11:06:17.139Z,11.00
2018-05-23T11:07:17.140Z,11.00
2018-05-23T11:08:17.146Z,10.80
2018-05-23T11:09:17.154Z,10.00
2018-05-23T11:10:17.156Z,10.70
2018-05-23T11:11:17.168Z,10.20
2018-05-23T11:12:17.173Z,10.30
2018-05-23T11:13:17.174Z,11.00
2018-05-23T11:14:17.178Z,11.30
2018-05-23T11:15:17.213Z,10.70
2018-05-23T11:16:17.192Z,11.50
2018-05-23T11:17:17.197Z,10.50
2018-05-23T11:18:17.202Z,9.50
2018-05-23T11:19:17.201Z,10.80
2018-05-23T11:20:17.206Z,10.80
2018-05-23T11:21:17.217Z,10.00
2018-05-23T11:22:17.215Z,10.10
2018-05-23T11:23:17.223Z,9.80
2018-05-23T11:24:17.228Z,10.30
2018-05-23T11:25:17.233Z,10.30
2018-05-23T11:26:17.238Z,10.40
2018-05-23T11:27:17.235Z,9.90
2018-05-23T11:28:17.241Z,10.60
2018-05-23T11:29:17.249Z,10.50
2018-05-23T11:30:17.255Z,10.30
2018-05-23T11:31:17.251Z,10.50
2018-05-23T11:32:17.255Z,10.70
2018-05-23T11:33:17.259Z,10.70
2018-05-23T11:34:17.263Z,10.70
2018-05-23T11:35:17.270Z,11.20
2018-05-23T11:36:17.274Z,10.80
2018-05-23T11:37:17.328Z,11.00
2018-05-23T11:38:17.283Z,10.90
2018-05-23T11:39:17.283Z,10.70
2018-05-23T11:40:17.284Z,11.60
2018-05-23T11:41:17.291Z,10.70
2018-05-23T11:42:17.292Z,10.90
2018-05-23T11:43:17.300Z,11.10
2018-05-23T11:44:17.303Z,11.10
2018-05-23T11:45:17.301Z,11.30
2018-05-23T11:46:17.305Z,10.90
2018-05-23T11:47:17.311Z,11.60
2018-05-23T11:48:17.314Z,11.10
2018-05-23T11:49:17.319Z,11.20
2018-05-23T11:50:17.324Z,10.90
2018-05-23T11:51:17.319Z,11.50
2018-05-23T11:52:17.409Z,11.50
2018-05-23T11:53:17.325Z,11.00
2018-05-23T11:54:17.328Z,11.40
2018-05-23T11:55:17.335Z,11.10
2018-05-23T11:56:17.339Z,11.20
2018-05-23T11:57:17.344Z,11.30
2018-05-23T11:58:17.342Z,11.40
2018-05-23T11:59:17.340Z,12.10
2018-05-23T12:00:17.342Z,13.00
2018-05-23T12:01:17.352Z,15.40
2018-05-23T12:02:17.352Z,16.90
2018-05-23T12:03:17.349Z,17.40
2018-05-23T12:04:17.353Z,17.60
2018-05-23T12:05:17.354Z,17.30
2018-05-23T12:06:17.355Z,19.80
2018-05-23T12:07:17.361Z,21.50
2018-05-23T12:08:17.363Z,21.40
2018-05-23T12:09:17.366Z,21.50
2018-05-23T12:10:17.389Z,21.40
2018-05-23T12:11:17.363Z,21.10
2018-05-23T12:12:17.363Z,18.60
2018-05-23T12:13:17.365Z,17.90
2018-05-23T12:14:17.366Z,18.70
2018-05-23T12:15:17.370Z,15.90
2018-05-23T12:16:17.371Z,15.30
2018-05-23T12:17:17.368Z,15.70
2018-05-23T12:18:17.369Z,16.10
2018-05-23T12:19:17.373Z,15.40
2018-05-23T12:20:17.375Z,14.70
2018-05-23T12:21:17.380Z,13.60
2018-05-23T12:22:17.377Z,12.30
2018-05-23T12:23:17.375Z,14.30
2018-05-23T12:24:17.375Z,16.00
2018-05-23T12:25:17.375Z,15.90
2018-05-23T12:26:17.375Z,15.30
2018-05-23T12:27:17.382Z,15.30
2018-05-23T12:28:17.382Z,14.90
2018-05-23T12:29:17.383Z,11.40
2018-05-23T12:30:17.385Z,11.60
2018-05-23T12:31:17.380Z,13.50
2018-05-23T12:32:17.382Z,14.90
2018-05-23T12:33:17.388Z,14.70
2018-05-23T12:34:17.388Z,14.10
2018-05-23T12:35:17.385Z,13.30
2018-05-23T12:36:17.390Z,13.50
2018-05-23T12:37:17.389Z,12.50
2018-05-23T12:38:17.390Z,12.40
2018-05-23T12:39:17.396Z,11.90
2018-05-23T12:40:17.396Z,13.00
2018-05-23T12:41:17.397Z,12.90
2018-05-23T12:42:17.399Z,12.50
2018-05-23T12:43:17.395Z,13.00
2018-05-23T12:44:17.397Z,12.00
2018-05-23T12:45:17.399Z,12.30
2018-05-23T12:46:17.401Z,12.30
2018-05-23T12:47:17.407Z,11.70
2018-05-23T12:48:17.412Z,12.20
2018-05-23T12:49:17.405Z,12.70
2018-05-23T12:50:17.408Z,12.60
2018-05-23T12:51:17.413Z,12.70
2018-05-23T12:52:17.416Z,12.60
2018-05-23T12:53:17.416Z,12.40
2018-05-23T12:54:17.419Z,13.00
2018-05-23T12:55:17.416Z,12.50